sensor_id;sensor_type;location;lat;lon;timestamp;pressure;altitude;pressure_sealevel;temperature;humidity
24306;BME280;12423;48.768;8.850;2023-08-08T00:01:17;97126.00;;;13.15;100.00
24306;BME280;12423;48.768;8.850;2023-08-08T00:03:45;97129.69;;;13.14;100.00
24306;BME280;12423;48.768;8.850;2023-08-08T00:06:13;97131.38;;;13.15;100.00
24306;BME280;12423;48.768;8.850;2023-08-08T00:08:41;97121.91;;;13.20;100.00
24306;BME280;12423;48.768;8.850;2023-08-08T00:11:09;97125.00;;;13.25;100.00
24306;BME280;12423;48.768;8.850;2023-08-08T00:13:36;97131.06;;;13.37;100.00
24306;BME280;12423;48.768;8.850;2023-08-08T00:16:06;97130.06;;;13.38;100.00
24306;BME280;12423;48.768;8.850;2023-08-08T00:18:34;97126.66;;;13.36;100.00
24306;BME280;12423;48.768;8.850;2023-08-08T00:21:02;97123.16;;;13.36;100.00
24306;BME280;12423;48.768;8.850;2023-08-08T00:23:29;97125.69;;;13.37;100.00
24306;BME280;12423;48.768;8.850;2023-08-08T00:25:57;97125.16;;;13.34;100.00
24306;BME280;12423;48.768;8.850;2023-08-08T00:28:25;97126.22;;;13.31;100.00
24306;BME280;12423;48.768;8.850;2023-08-08T00:30:52;97130.91;;;13.29;100.00
24306;BME280;12423;48.768;8.850;2023-08-08T00:33:22;97121.16;;;13.28;100.00
24306;BME280;12423;48.768;8.850;2023-08-08T00:35:49;97130.78;;;13.21;100.00
24306;BME280;12423;48.768;8.850;2023-08-08T00:38:17;97121.22;;;13.18;100.00
24306;BME280;12423;48.768;8.850;2023-08-08T00:40:45;97119.25;;;13.11;100.00
24306;BME280;12423;48.768;8.850;2023-08-08T00:43:13;97116.75;;;12.99;100.00
24306;BME280;12423;48.768;8.850;2023-08-08T00:45:42;97115.03;;;13.08;100.00
24306;BME280;12423;48.768;8.850;2023-08-08T00:48:10;97115.63;;;13.02;100.00
24306;BME280;12423;48.768;8.850;2023-08-08T00:50:43;97118.44;;;13.00;100.00
24306;BME280;12423;48.768;8.850;2023-08-08T00:53:11;97114.22;;;12.98;100.00
24306;BME280;12423;48.768;8.850;2023-08-08T00:55:39;97114.22;;;12.98;100.00
24306;BME280;12423;48.768;8.850;2023-08-08T00:58:07;97117.00;;;13.06;100.00
24306;BME280;12423;48.768;8.850;2023-08-08T01:00:35;97111.38;;;12.99;100.00
24306;BME280;12423;48.768;8.850;2023-08-08T01:03:04;97113.22;;;12.99;100.00
24306;BME280;12423;48.768;8.850;2023-08-08T01:05:37;97110.56;;;12.99;100.00
24306;BME280;12423;48.768;8.850;2023-08-08T01:08:07;97107.59;;;13.02;100.00
24306;BME280;12423;48.768;8.850;2023-08-08T01:10:38;97105.47;;;12.96;100.00
24306;BME280;12423;48.768;8.850;2023-08-08T01:13:09;97108.00;;;12.97;100.00
24306;BME280;12423;48.768;8.850;2023-08-08T01:15:39;97108.00;;;12.97;100.00
24306;BME280;12423;48.768;8.850;2023-08-08T01:18:08;97100.38;;;13.02;100.00
24306;BME280;12423;48.768;8.850;2023-08-08T01:20:38;97104.47;;;12.97;100.00
24306;BME280;12423;48.768;8.850;2023-08-08T01:23:12;97097.28;;;12.97;100.00
24306;BME280;12423;48.768;8.850;2023-08-08T01:25:43;97104.63;;;12.95;100.00
24306;BME280;12423;48.768;8.850;2023-08-08T01:28:11;97096.16;;;12.90;100.00
24306;BME280;12423;48.768;8.850;2023-08-08T01:30:39;97087.56;;;12.86;100.00
24306;BME280;12423;48.768;8.850;2023-08-08T01:33:08;97084.06;;;12.86;100.00
24306;BME280;12423;48.768;8.850;2023-08-08T01:35:38;97089.41;;;12.86;100.00
24306;BME280;12423;48.768;8.850;2023-08-08T01:38:11;97093.22;;;12.83;100.00
24306;BME280;12423;48.768;8.850;2023-08-08T01:40:43;97091.41;;;12.84;100.00
24306;BME280;12423;48.768;8.850;2023-08-08T01:43:12;97089.00;;;12.81;100.00
24306;BME280;12423;48.768;8.850;2023-08-08T01:45:40;97092.53;;;12.71;100.00
24306;BME280;12423;48.768;8.850;2023-08-08T01:48:09;97099.19;;;12.77;100.00
24306;BME280;12423;48.768;8.850;2023-08-08T01:50:38;97093.81;;;12.77;100.00
24306;BME280;12423;48.768;8.850;2023-08-08T01:53:06;97095.78;;;12.75;100.00
24306;BME280;12423;48.768;8.850;2023-08-08T01:55:33;97085.06;;;12.75;100.00
24306;BME280;12423;48.768;8.850;2023-08-08T01:58:03;97091.13;;;12.77;100.00
24306;BME280;12423;48.768;8.850;2023-08-08T02:00:31;97093.41;;;12.72;100.00
24306;BME280;12423;48.768;8.850;2023-08-08T02:02:58;97090.44;;;12.65;100.00
24306;BME280;12423;48.768;8.850;2023-08-08T02:05:27;97088.34;;;12.69;100.00
24306;BME280;12423;48.768;8.850;2023-08-08T02:07:56;97084.22;;;12.65;100.00
24306;BME280;12423;48.768;8.850;2023-08-08T02:10:24;97088.91;;;12.63;100.00
24306;BME280;12423;48.768;8.850;2023-08-08T02:12:52;97088.50;;;12.58;100.00
24306;BME280;12423;48.768;8.850;2023-08-08T02:15:21;97084.94;;;12.57;100.00
24306;BME280;12423;48.768;8.850;2023-08-08T02:17:50;97088.63;;;12.56;100.00
24306;BME280;12423;48.768;8.850;2023-08-08T02:20:17;97084.66;;;12.60;100.00
24306;BME280;12423;48.768;8.850;2023-08-08T02:22:45;97069.03;;;12.56;100.00
24306;BME280;12423;48.768;8.850;2023-08-08T02:25:13;97074.81;;;12.51;100.00
24306;BME280;12423;48.768;8.850;2023-08-08T02:27:41;97068.88;;;12.57;100.00
24306;BME280;12423;48.768;8.850;2023-08-08T02:30:10;97075.09;;;12.48;100.00
24306;BME280;12423;48.768;8.850;2023-08-08T02:32:39;97072.28;;;12.49;100.00
24306;BME280;12423;48.768;8.850;2023-08-08T02:35:08;97064.66;;;12.45;100.00
24306;BME280;12423;48.768;8.850;2023-08-08T02:37:36;97068.63;;;12.41;100.00
24306;BME280;12423;48.768;8.850;2023-08-08T02:40:10;97074.84;;;12.31;100.00
24306;BME280;12423;48.768;8.850;2023-08-08T02:42:38;97075.41;;;12.35;100.00
24306;BME280;12423;48.768;8.850;2023-08-08T02:45:07;97074.28;;;12.38;100.00
24306;BME280;12423;48.768;8.850;2023-08-08T02:47:35;97074.28;;;12.47;100.00
24306;BME280;12423;48.768;8.850;2023-08-08T02:50:06;97069.59;;;12.49;100.00
24306;BME280;12423;48.768;8.850;2023-08-08T02:52:33;97074.41;;;12.46;100.00
24306;BME280;12423;48.768;8.850;2023-08-08T02:55:01;97074.69;;;12.43;100.00
24306;BME280;12423;48.768;8.850;2023-08-08T02:57:29;97074.81;;;12.51;100.00
24306;BME280;12423;48.768;8.850;2023-08-08T02:59:58;97073.13;;;12.50;100.00
24306;BME280;12423;48.768;8.850;2023-08-08T03:02:30;97071.13;;;12.52;100.00
24306;BME280;12423;48.768;8.850;2023-08-08T03:04:58;97064.63;;;12.64;100.00
24306;BME280;12423;48.768;8.850;2023-08-08T03:07:27;97063.63;;;12.65;100.00
24306;BME280;12423;48.768;8.850;2023-08-08T03:09:55;97067.44;;;12.72;100.00
24306;BME280;12423;48.768;8.850;2023-08-08T03:12:23;97066.16;;;12.77;100.00
24306;BME280;12423;48.768;8.850;2023-08-08T03:14:53;97077.28;;;12.82;100.00
24306;BME280;12423;48.768;8.850;2023-08-08T03:17:21;97067.97;;;12.86;100.00
24306;BME280;12423;48.768;8.850;2023-08-08T03:19:50;97067.97;;;12.86;100.00
24306;BME280;12423;48.768;8.850;2023-08-08T03:22:18;97068.78;;;12.96;100.00
24306;BME280;12423;48.768;8.850;2023-08-08T03:24:47;97071.88;;;12.91;100.00
24306;BME280;12423;48.768;8.850;2023-08-08T03:27:15;97063.72;;;12.83;100.00
24306;BME280;12423;48.768;8.850;2023-08-08T03:29:43;97066.88;;;12.79;100.00
24306;BME280;12423;48.768;8.850;2023-08-08T03:32:11;97070.53;;;12.78;100.00
24306;BME280;12423;48.768;8.850;2023-08-08T03:34:39;97064.47;;;12.76;100.00
24306;BME280;12423;48.768;8.850;2023-08-08T03:37:07;97063.34;;;12.68;100.00
24306;BME280;12423;48.768;8.850;2023-08-08T03:39:35;97065.19;;;12.68;100.00
24306;BME280;12423;48.768;8.850;2023-08-08T03:42:05;97063.75;;;12.73;100.00
24306;BME280;12423;48.768;8.850;2023-08-08T03:44:32;97065.16;;;12.78;100.00
24306;BME280;12423;48.768;8.850;2023-08-08T03:47:00;97064.13;;;12.88;100.00
24306;BME280;12423;48.768;8.850;2023-08-08T03:49:45;97069.06;;;12.93;100.00
24306;BME280;12423;48.768;8.850;2023-08-08T03:52:13;97062.03;;;12.92;100.00
24306;BME280;12423;48.768;8.850;2023-08-08T03:54:42;97063.69;;;12.93;100.00
24306;BME280;12423;48.768;8.850;2023-08-08T03:57:11;97065.00;;;12.89;100.00
24306;BME280;12423;48.768;8.850;2023-08-08T03:59:39;97056.56;;;12.84;100.00
24306;BME280;12423;48.768;8.850;2023-08-08T04:02:07;97059.53;;;12.81;100.00
24306;BME280;12423;48.768;8.850;2023-08-08T04:04:35;97066.16;;;12.77;100.00
24306;BME280;12423;48.768;8.850;2023-08-08T04:07:03;97074.19;;;12.77;100.00
24306;BME280;12423;48.768;8.850;2023-08-08T04:09:31;97069.84;;;12.76;100.00
24306;BME280;12423;48.768;8.850;2023-08-08T04:11:59;97073.78;;;12.71;100.00
24306;BME280;12423;48.768;8.850;2023-08-08T04:14:28;97065.75;;;12.71;100.00
24306;BME280;12423;48.768;8.850;2023-08-08T04:16:56;97067.31;;;12.64;100.00
24306;BME280;12423;48.768;8.850;2023-08-08T04:19:24;97066.63;;;12.62;100.00
24306;BME280;12423;48.768;8.850;2023-08-08T04:21:52;97073.09;;;12.60;100.00
24306;BME280;12423;48.768;8.850;2023-08-08T04:24:20;97075.78;;;12.60;100.00
24306;BME280;12423;48.768;8.850;2023-08-08T04:26:47;97072.00;;;12.62;100.00
24306;BME280;12423;48.768;8.850;2023-08-08T04:29:15;97075.31;;;12.84;100.00
24306;BME280;12423;48.768;8.850;2023-08-08T04:31:44;97066.53;;;12.91;100.00
24306;BME280;12423;48.768;8.850;2023-08-08T04:34:12;97067.94;;;12.96;100.00
24306;BME280;12423;48.768;8.850;2023-08-08T04:36:39;97075.84;;;12.97;100.00
24306;BME280;12423;48.768;8.850;2023-08-08T04:39:07;97067.78;;;12.97;100.00
24306;BME280;12423;48.768;8.850;2023-08-08T04:41:35;97071.28;;;13.07;100.00
24306;BME280;12423;48.768;8.850;2023-08-08T04:44:03;97071.69;;;13.13;100.00
24306;BME280;12423;48.768;8.850;2023-08-08T04:46:31;97067.31;;;13.12;100.00
24306;BME280;12423;48.768;8.850;2023-08-08T04:49:00;97072.69;;;13.12;100.00
24306;BME280;12423;48.768;8.850;2023-08-08T04:51:28;97074.38;;;13.13;100.00
24306;BME280;12423;48.768;8.850;2023-08-08T04:53:55;97076.06;;;13.14;100.00
24306;BME280;12423;48.768;8.850;2023-08-08T04:56:23;97069.41;;;13.18;100.00
24306;BME280;12423;48.768;8.850;2023-08-08T04:58:52;97066.31;;;13.13;100.00
24306;BME280;12423;48.768;8.850;2023-08-08T05:01:20;97072.78;;;13.20;100.00
24306;BME280;12423;48.768;8.850;2023-08-08T05:03:48;97082.06;;;13.25;100.00
24306;BME280;12423;48.768;8.850;2023-08-08T05:06:19;97081.09;;;13.26;100.00
24306;BME280;12423;48.768;8.850;2023-08-08T05:08:48;97079.38;;;13.35;100.00
24306;BME280;12423;48.768;8.850;2023-08-08T05:11:16;97085.00;;;13.42;100.00
24306;BME280;12423;48.768;8.850;2023-08-08T05:13:44;97073.44;;;13.41;100.00
24306;BME280;12423;48.768;8.850;2023-08-08T05:16:12;97072.97;;;13.46;100.00
24306;BME280;12423;48.768;8.850;2023-08-08T05:18:39;97065.78;;;13.47;100.00
24306;BME280;12423;48.768;8.850;2023-08-08T05:21:10;97063.78;;;13.49;100.00
24306;BME280;12423;48.768;8.850;2023-08-08T05:23:40;97069.16;;;13.49;100.00
24306;BME280;12423;48.768;8.850;2023-08-08T05:26:07;97074.63;;;13.57;100.00
24306;BME280;12423;48.768;8.850;2023-08-08T05:28:35;97080.28;;;13.54;100.00
24306;BME280;12423;48.768;8.850;2023-08-08T05:31:03;97075.50;;;13.48;100.00
24306;BME280;12423;48.768;8.850;2023-08-08T05:33:31;97075.88;;;13.53;100.00
24306;BME280;12423;48.768;8.850;2023-08-08T05:35:59;97079.59;;;13.52;100.00
24306;BME280;12423;48.768;8.850;2023-08-08T05:38:27;97073.94;;;13.55;100.00
24306;BME280;12423;48.768;8.850;2023-08-08T05:40:56;97071.94;;;13.57;100.00
24306;BME280;12423;48.768;8.850;2023-08-08T05:43:24;97076.69;;;13.63;100.00
24306;BME280;12423;48.768;8.850;2023-08-08T05:45:53;97078.06;;;13.67;100.00
24306;BME280;12423;48.768;8.850;2023-08-08T05:48:21;97069.56;;;13.72;100.00
24306;BME280;12423;48.768;8.850;2023-08-08T05:50:49;97069.56;;;13.72;100.00
24306;BME280;12423;48.768;8.850;2023-08-08T05:53:17;97075.19;;;13.78;100.00
24306;BME280;12423;48.768;8.850;2023-08-08T05:55:44;97064.38;;;13.88;100.00
24306;BME280;12423;48.768;8.850;2023-08-08T05:58:14;97063.47;;;13.97;100.00
24306;BME280;12423;48.768;8.850;2023-08-08T06:00:41;97065.91;;;14.09;100.00
24306;BME280;12423;48.768;8.850;2023-08-08T06:03:10;97069.53;;;14.17;100.00
24306;BME280;12423;48.768;8.850;2023-08-08T06:05:37;97069.91;;;14.23;100.00
24306;BME280;12423;48.768;8.850;2023-08-08T06:08:05;97072.66;;;14.31;100.00
24306;BME280;12423;48.768;8.850;2023-08-08T06:10:37;97085.50;;;14.37;100.00
24306;BME280;12423;48.768;8.850;2023-08-08T06:13:05;97083.19;;;14.42;100.00
24306;BME280;12423;48.768;8.850;2023-08-08T06:15:34;97082.75;;;14.55;100.00
24306;BME280;12423;48.768;8.850;2023-08-08T06:18:02;97080.31;;;14.62;100.00
24306;BME280;12423;48.768;8.850;2023-08-08T06:20:30;97080.00;;;14.65;100.00
24306;BME280;12423;48.768;8.850;2023-08-08T06:22:58;97080.06;;;14.73;100.00
24306;BME280;12423;48.768;8.850;2023-08-08T06:25:26;97082.28;;;14.78;100.00
24306;BME280;12423;48.768;8.850;2023-08-08T06:27:55;97076.81;;;14.87;100.00
24306;BME280;12423;48.768;8.850;2023-08-08T06:30:22;97076.19;;;14.93;100.00
24306;BME280;12423;48.768;8.850;2023-08-08T06:32:51;97083.22;;;14.95;100.00
24306;BME280;12423;48.768;8.850;2023-08-08T06:35:19;97074.84;;;14.98;100.00
24306;BME280;12423;48.768;8.850;2023-08-08T06:37:47;97075.56;;;15.00;100.00
24306;BME280;12423;48.768;8.850;2023-08-08T06:40:16;97084.00;;;15.05;100.00
24306;BME280;12423;48.768;8.850;2023-08-08T06:42:43;97072.91;;;15.08;100.00
24306;BME280;12423;48.768;8.850;2023-08-08T06:45:11;97076.28;;;15.10;100.00
24306;BME280;12423;48.768;8.850;2023-08-08T06:47:39;97084.13;;;15.29;100.00
24306;BME280;12423;48.768;8.850;2023-08-08T06:50:09;97077.38;;;15.25;100.00
24306;BME280;12423;48.768;8.850;2023-08-08T06:52:37;97075.69;;;15.33;100.00
24306;BME280;12423;48.768;8.850;2023-08-08T06:55:05;97078.94;;;15.36;100.00
24306;BME280;12423;48.768;8.850;2023-08-08T06:57:33;97078.94;;;15.36;100.00
24306;BME280;12423;48.768;8.850;2023-08-08T07:00:01;97071.22;;;15.41;100.00
24306;BME280;12423;48.768;8.850;2023-08-08T07:02:31;97087.22;;;15.43;100.00
24306;BME280;12423;48.768;8.850;2023-08-08T07:04:59;97078.50;;;15.57;100.00
24306;BME280;12423;48.768;8.850;2023-08-08T07:07:28;97084.25;;;15.54;100.00
24306;BME280;12423;48.768;8.850;2023-08-08T07:09:57;97076.19;;;15.62;100.00
24306;BME280;12423;48.768;8.850;2023-08-08T07:12:25;97076.59;;;15.76;100.00
24306;BME280;12423;48.768;8.850;2023-08-08T07:14:53;97076.97;;;15.89;100.00
24306;BME280;12423;48.768;8.850;2023-08-08T07:17:21;97082.84;;;15.84;100.00
24306;BME280;12423;48.768;8.850;2023-08-08T07:19:48;97077.31;;;15.94;100.00
24306;BME280;12423;48.768;8.850;2023-08-08T07:22:17;97067.22;;;16.05;100.00
24306;BME280;12423;48.768;8.850;2023-08-08T07:24:46;97069.63;;;16.24;100.00
24306;BME280;12423;48.768;8.850;2023-08-08T07:27:13;97071.97;;;16.35;100.00
24306;BME280;12423;48.768;8.850;2023-08-08T07:29:41;97063.22;;;16.42;100.00
24306;BME280;12423;48.768;8.850;2023-08-08T07:32:09;97065.22;;;16.48;100.00
24306;BME280;12423;48.768;8.850;2023-08-08T07:34:37;97060.16;;;16.61;100.00
24306;BME280;12423;48.768;8.850;2023-08-08T07:37:05;97065.22;;;16.48;100.00
24306;BME280;12423;48.768;8.850;2023-08-08T07:39:32;97069.13;;;16.53;100.00
24306;BME280;12423;48.768;8.850;2023-08-08T07:42:02;97064.56;;;16.54;100.00
24306;BME280;12423;48.768;8.850;2023-08-08T07:44:29;97066.25;;;16.55;100.00
24306;BME280;12423;48.768;8.850;2023-08-08T07:46:58;97063.56;;;16.55;100.00
24306;BME280;12423;48.768;8.850;2023-08-08T07:49:26;97065.56;;;16.61;100.00
24306;BME280;12423;48.768;8.850;2023-08-08T07:51:53;97050.75;;;16.49;100.00
24306;BME280;12423;48.768;8.850;2023-08-08T07:54:21;97059.34;;;16.52;100.00
24306;BME280;12423;48.768;8.850;2023-08-08T07:56:49;97058.16;;;16.63;100.00
24306;BME280;12423;48.768;8.850;2023-08-08T07:59:18;97054.09;;;16.75;100.00
24306;BME280;12423;48.768;8.850;2023-08-08T08:01:46;97063.19;;;16.83;100.00
24306;BME280;12423;48.768;8.850;2023-08-08T08:04:13;97065.69;;;16.84;97.86
24306;BME280;12423;48.768;8.850;2023-08-08T08:06:41;97063.72;;;16.78;95.12
24306;BME280;12423;48.768;8.850;2023-08-08T08:09:10;97056.13;;;16.73;94.65
24306;BME280;12423;48.768;8.850;2023-08-08T08:11:38;97060.66;;;16.89;93.80
24306;BME280;12423;48.768;8.850;2023-08-08T08:14:06;97059.16;;;16.95;89.93
24306;BME280;12423;48.768;8.850;2023-08-08T08:16:35;97052.94;;;16.94;89.71
24306;BME280;12423;48.768;8.850;2023-08-08T08:19:03;97054.75;;;16.94;88.88
24306;BME280;12423;48.768;8.850;2023-08-08T08:21:31;97065.72;;;17.01;88.13
24306;BME280;12423;48.768;8.850;2023-08-08T08:23:58;97060.47;;;16.99;87.32
24306;BME280;12423;48.768;8.850;2023-08-08T08:26:26;97056.44;;;16.95;87.89
24306;BME280;12423;48.768;8.850;2023-08-08T08:28:54;97055.00;;;17.24;89.48
24306;BME280;12423;48.768;8.850;2023-08-08T08:31:22;97056.34;;;17.36;87.49
24306;BME280;12423;48.768;8.850;2023-08-08T08:33:52;97054.59;;;17.43;86.99
24306;BME280;12423;48.768;8.850;2023-08-08T08:36:21;97053.16;;;17.33;83.80
24306;BME280;12423;48.768;8.850;2023-08-08T08:38:49;97057.97;;;17.45;82.48
24306;BME280;12423;48.768;8.850;2023-08-08T08:41:20;97058.88;;;17.29;81.74
24306;BME280;12423;48.768;8.850;2023-08-08T08:43:53;97052.28;;;17.32;83.98
24306;BME280;12423;48.768;8.850;2023-08-08T08:46:22;97046.09;;;17.63;81.59
24306;BME280;12423;48.768;8.850;2023-08-08T08:48:51;97047.97;;;17.62;80.65
24306;BME280;12423;48.768;8.850;2023-08-08T08:51:19;97041.47;;;17.72;80.91
24306;BME280;12423;48.768;8.850;2023-08-08T08:53:47;97037.53;;;17.91;81.32
24306;BME280;12423;48.768;8.850;2023-08-08T08:56:15;97037.19;;;17.85;81.34
24306;BME280;12423;48.768;8.850;2023-08-08T08:58:43;97039.41;;;18.13;81.39
24306;BME280;12423;48.768;8.850;2023-08-08T09:01:11;97037.66;;;18.20;79.67
24306;BME280;12423;48.768;8.850;2023-08-08T09:03:40;97033.88;;;18.30;78.52
24306;BME280;12423;48.768;8.850;2023-08-08T09:06:11;97049.28;;;18.44;79.22
24306;BME280;12423;48.768;8.850;2023-08-08T09:08:39;97033.38;;;18.26;78.10
24306;BME280;12423;48.768;8.850;2023-08-08T09:11:06;97036.44;;;18.23;75.48
24306;BME280;12423;48.768;8.850;2023-08-08T09:13:36;97045.28;;;18.17;75.24
24306;BME280;12423;48.768;8.850;2023-08-08T09:16:06;97034.59;;;18.23;77.75
24306;BME280;12423;48.768;8.850;2023-08-08T09:18:35;97046.00;;;18.34;73.92
24306;BME280;12423;48.768;8.850;2023-08-08T09:21:04;97050.91;;;18.53;74.29
24306;BME280;12423;48.768;8.850;2023-08-08T09:23:34;97049.00;;;18.39;73.80
24306;BME280;12423;48.768;8.850;2023-08-08T09:26:03;97032.88;;;18.46;72.65
24306;BME280;12423;48.768;8.850;2023-08-08T09:28:31;97024.00;;;18.37;73.67
24306;BME280;12423;48.768;8.850;2023-08-08T09:30:58;97024.97;;;18.44;73.42
24306;BME280;12423;48.768;8.850;2023-08-08T09:33:28;97027.59;;;18.52;73.54
24306;BME280;12423;48.768;8.850;2023-08-08T09:35:56;97027.78;;;18.51;73.04
24306;BME280;12423;48.768;8.850;2023-08-08T09:38:24;97023.88;;;18.53;72.01
24306;BME280;12423;48.768;8.850;2023-08-08T09:40:53;97029.78;;;18.72;71.78
24306;BME280;12423;48.768;8.850;2023-08-08T09:43:21;97021.38;;;19.05;71.27
24306;BME280;12423;48.768;8.850;2023-08-08T09:45:49;97030.69;;;19.17;68.60
24306;BME280;12423;48.768;8.850;2023-08-08T09:48:18;97025.84;;;18.98;68.62
24306;BME280;12423;48.768;8.850;2023-08-08T09:50:47;97029.31;;;19.06;68.66
24306;BME280;12423;48.768;8.850;2023-08-08T09:53:16;97026.72;;;18.75;67.48
24306;BME280;12423;48.768;8.850;2023-08-08T09:55:44;97029.94;;;18.93;68.82
24306;BME280;12423;48.768;8.850;2023-08-08T09:58:14;97020.72;;;19.03;68.50
24306;BME280;12423;48.768;8.850;2023-08-08T10:00:42;97025.00;;;19.12;68.43
24306;BME280;12423;48.768;8.850;2023-08-08T10:03:10;97012.50;;;19.11;69.66
24306;BME280;12423;48.768;8.850;2023-08-08T10:05:38;97008.47;;;19.22;65.48
24306;BME280;12423;48.768;8.850;2023-08-08T10:08:06;97010.13;;;19.52;66.08
24306;BME280;12423;48.768;8.850;2023-08-08T10:10:34;97011.84;;;19.90;67.76
24306;BME280;12423;48.768;8.850;2023-08-08T10:13:03;97012.50;;;20.35;67.51
24306;BME280;12423;48.768;8.850;2023-08-08T10:15:32;96999.84;;;19.99;66.57
24306;BME280;12423;48.768;8.850;2023-08-08T10:18:04;96994.66;;;20.48;67.86
24306;BME280;12423;48.768;8.850;2023-08-08T10:20:32;96998.03;;;20.50;65.90
24306;BME280;12423;48.768;8.850;2023-08-08T10:23:02;97010.69;;;19.99;65.65
24306;BME280;12423;48.768;8.850;2023-08-08T10:25:31;97002.09;;;20.39;67.27
24306;BME280;12423;48.768;8.850;2023-08-08T10:28:03;97008.69;;;20.30;61.86
24306;BME280;12423;48.768;8.850;2023-08-08T10:30:55;96998.28;;;20.33;65.25
24306;BME280;12423;48.768;8.850;2023-08-08T10:33:24;96998.63;;;20.23;63.80
24306;BME280;12423;48.768;8.850;2023-08-08T10:35:59;97011.28;;;20.16;63.92
24306;BME280;12423;48.768;8.850;2023-08-08T10:38:40;97014.41;;;19.77;61.63
24306;BME280;12423;48.768;8.850;2023-08-08T10:41:09;97020.75;;;19.84;64.57
24306;BME280;12423;48.768;8.850;2023-08-08T10:43:38;97012.03;;;19.88;62.42
24306;BME280;12423;48.768;8.850;2023-08-08T10:46:08;97002.78;;;19.83;62.70
24306;BME280;12423;48.768;8.850;2023-08-08T10:48:50;97000.09;;;20.48;60.57
24306;BME280;12423;48.768;8.850;2023-08-08T10:51:18;96996.06;;;20.65;59.15
24306;BME280;12423;48.768;8.850;2023-08-08T10:53:46;96996.59;;;20.82;57.75
24306;BME280;12423;48.768;8.850;2023-08-08T10:56:14;97002.94;;;20.39;60.41
24306;BME280;12423;48.768;8.850;2023-08-08T10:58:47;96999.06;;;20.05;60.36
24306;BME280;12423;48.768;8.850;2023-08-08T11:01:16;96994.66;;;20.04;61.43
24306;BME280;12423;48.768;8.850;2023-08-08T11:03:47;96993.88;;;20.82;60.23
24306;BME280;12423;48.768;8.850;2023-08-08T11:06:16;96993.84;;;21.04;57.84
24306;BME280;12423;48.768;8.850;2023-08-08T11:08:45;96997.13;;;20.92;58.03
24306;BME280;12423;48.768;8.850;2023-08-08T11:11:12;96999.69;;;21.90;56.35
24306;BME280;12423;48.768;8.850;2023-08-08T11:13:40;96989.13;;;22.36;54.31
24306;BME280;12423;48.768;8.850;2023-08-08T11:16:08;96997.25;;;23.09;52.03
24306;BME280;12423;48.768;8.850;2023-08-08T11:18:37;96993.28;;;23.18;50.79
24306;BME280;12423;48.768;8.850;2023-08-08T11:21:09;96995.59;;;23.15;50.88
24306;BME280;12423;48.768;8.850;2023-08-08T11:23:46;96986.75;;;23.85;51.46
24306;BME280;12423;48.768;8.850;2023-08-08T11:26:17;96989.09;;;24.13;50.45
24306;BME280;12423;48.768;8.850;2023-08-08T11:28:49;96997.66;;;24.17;49.88
24306;BME280;12423;48.768;8.850;2023-08-08T11:31:17;96980.03;;;25.20;49.51
24306;BME280;12423;48.768;8.850;2023-08-08T11:33:47;96982.88;;;24.88;45.06
24306;BME280;12423;48.768;8.850;2023-08-08T11:36:15;96991.19;;;24.43;48.00
24306;BME280;12423;48.768;8.850;2023-08-08T11:38:43;96978.41;;;24.94;47.13
24306;BME280;12423;48.768;8.850;2023-08-08T11:41:12;96983.94;;;25.06;46.21
24306;BME280;12423;48.768;8.850;2023-08-08T11:43:41;96987.56;;;23.79;46.73
24306;BME280;12423;48.768;8.850;2023-08-08T11:46:09;96982.16;;;24.17;45.92
24306;BME280;12423;48.768;8.850;2023-08-08T11:48:37;96983.63;;;24.45;45.07
24306;BME280;12423;48.768;8.850;2023-08-08T11:51:07;96978.16;;;25.39;45.42
24306;BME280;12423;48.768;8.850;2023-08-08T11:53:36;96969.00;;;25.64;45.73
24306;BME280;12423;48.768;8.850;2023-08-08T11:56:15;96977.53;;;24.43;47.95
24306;BME280;12423;48.768;8.850;2023-08-08T11:58:43;96979.44;;;24.42;50.20
24306;BME280;12423;48.768;8.850;2023-08-08T12:01:10;96982.28;;;24.54;48.69
24306;BME280;12423;48.768;8.850;2023-08-08T12:03:40;96974.66;;;24.06;48.43
24306;BME280;12423;48.768;8.850;2023-08-08T12:06:13;96976.16;;;25.65;45.76
24306;BME280;12423;48.768;8.850;2023-08-08T12:08:42;96966.53;;;25.92;43.86
24306;BME280;12423;48.768;8.850;2023-08-08T12:11:12;96959.19;;;24.82;45.51
24306;BME280;12423;48.768;8.850;2023-08-08T12:13:41;96960.25;;;23.92;47.28
24306;BME280;12423;48.768;8.850;2023-08-08T12:16:11;96960.38;;;23.65;49.44
24306;BME280;12423;48.768;8.850;2023-08-08T12:18:43;96964.88;;;24.23;49.39
24306;BME280;12423;48.768;8.850;2023-08-08T12:21:13;96967.78;;;23.97;45.53
24306;BME280;12423;48.768;8.850;2023-08-08T12:23:41;96954.38;;;24.27;48.19
24306;BME280;12423;48.768;8.850;2023-08-08T12:26:09;96960.44;;;25.05;44.71
24306;BME280;12423;48.768;8.850;2023-08-08T12:28:36;96953.28;;;24.85;48.36
24306;BME280;12423;48.768;8.850;2023-08-08T12:31:04;96952.34;;;25.35;45.97
24306;BME280;12423;48.768;8.850;2023-08-08T12:33:32;96958.44;;;24.93;47.39
24306;BME280;12423;48.768;8.850;2023-08-08T12:36:00;96954.25;;;24.91;47.01
24306;BME280;12423;48.768;8.850;2023-08-08T12:38:29;96954.53;;;24.64;48.38
24306;BME280;12423;48.768;8.850;2023-08-08T12:40:57;96945.34;;;24.58;50.57
24306;BME280;12423;48.768;8.850;2023-08-08T12:43:24;96956.03;;;23.51;52.97
24306;BME280;12423;48.768;8.850;2023-08-08T12:45:52;96960.44;;;22.53;54.96
24306;BME280;12423;48.768;8.850;2023-08-08T12:48:20;96965.13;;;21.78;58.49
24306;BME280;12423;48.768;8.850;2023-08-08T12:50:47;96968.84;;;21.57;60.02
24306;BME280;12423;48.768;8.850;2023-08-08T12:53:15;96967.25;;;21.34;59.36
24306;BME280;12423;48.768;8.850;2023-08-08T12:55:44;96965.63;;;22.01;58.27
24306;BME280;12423;48.768;8.850;2023-08-08T12:58:12;96957.81;;;24.16;53.88
24306;BME280;12423;48.768;8.850;2023-08-08T13:00:40;96960.53;;;24.73;51.94